createdAt,value
2023-05-19T00:00:12.081Z,47.67
2023-05-19T00:02:45.438Z,48.63
2023-05-19T00:05:20.160Z,48.58
2023-05-19T00:07:54.078Z,51.33
2023-05-19T00:10:24.350Z,49.58
2023-05-19T00:12:54.296Z,47.05
2023-05-19T00:15:24.780Z,52.45
2023-05-19T00:17:56.854Z,45.88
2023-05-19T00:20:27.064Z,45.95
2023-05-19T00:22:56.997Z,54.15
2023-05-19T00:25:27.364Z,54.17
2023-05-19T00:27:57.246Z,44.95
2023-05-19T00:30:27.449Z,49.85
2023-05-19T00:32:57.899Z,44.10
2023-05-19T00:35:28.093Z,47.00
2023-05-19T00:37:57.818Z,46.25
2023-05-19T00:40:31.795Z,49.75
2023-05-19T00:43:02.441Z,47.63
2023-05-19T00:45:32.499Z,57.25
2023-05-19T00:48:02.875Z,44.60
2023-05-19T00:50:33.504Z,49.00
2023-05-19T00:53:04.080Z,48.47
2023-05-19T00:55:35.401Z,48.55
2023-05-19T00:58:07.622Z,46.85
2023-05-19T01:00:38.582Z,46.90
2023-05-19T01:03:12.735Z,51.65
2023-05-19T01:05:46.289Z,45.42
2023-05-19T01:08:16.495Z,52.20
2023-05-19T01:10:46.306Z,44.85
2023-05-19T01:13:16.478Z,49.72
2023-05-19T01:16:03.383Z,53.53
2023-05-19T01:19:12.567Z,45.08
2023-05-19T01:22:24.397Z,45.58
2023-05-19T01:25:22.961Z,43.72
2023-05-19T01:28:28.647Z,43.55
2023-05-19T01:31:01.420Z,46.90
2023-05-19T01:33:33.031Z,44.20
2023-05-19T01:36:05.848Z,41.35
2023-05-19T01:38:37.296Z,46.50
2023-05-19T01:41:08.717Z,41.03
2023-05-19T01:43:39.157Z,44.13
2023-05-19T01:46:10.018Z,42.35
2023-05-19T01:48:40.394Z,41.80
2023-05-19T01:51:10.208Z,42.05
2023-05-19T01:53:40.470Z,48.95
2023-05-19T01:56:10.521Z,36.42
2023-05-19T01:58:48.741Z,43.13
2023-05-19T02:01:41.655Z,47.97
2023-05-19T02:04:41.349Z,40.95
2023-05-19T02:07:50.654Z,41.40
2023-05-19T02:10:34.134Z,44.10
2023-05-19T02:13:08.330Z,39.95
2023-05-19T02:15:46.618Z,40.05
2023-05-19T02:18:19.546Z,40.72
2023-05-19T02:20:53.600Z,43.17
2023-05-19T02:23:23.754Z,38.10
2023-05-19T02:25:53.685Z,41.22
2023-05-19T02:28:23.691Z,43.72
2023-05-19T02:30:53.522Z,40.08
2023-05-19T02:33:27.542Z,44.40
2023-05-19T02:35:58.282Z,47.40
2023-05-19T02:38:28.560Z,42.42
2023-05-19T02:40:58.597Z,44.30
2023-05-19T02:43:28.685Z,36.60
2023-05-19T02:45:58.541Z,40.72
2023-05-19T02:48:29.410Z,38.50
2023-05-19T02:51:02.091Z,39.97
2023-05-19T02:53:34.036Z,46.47
2023-05-19T02:56:04.209Z,41.75
2023-05-19T02:58:34.015Z,39.45
2023-05-19T03:01:04.196Z,36.70
2023-05-19T03:03:34.446Z,41.42
2023-05-19T03:06:04.688Z,43.38
2023-05-19T03:08:34.444Z,40.50
2023-05-19T03:11:05.282Z,36.90
2023-05-19T03:13:35.393Z,40.03
2023-05-19T03:16:05.300Z,48.67
2023-05-19T03:18:35.814Z,36.80
2023-05-19T03:21:05.747Z,39.28
2023-05-19T03:23:35.708Z,38.38
2023-05-19T03:26:06.937Z,40.35
2023-05-19T03:28:37.326Z,41.50
2023-05-19T03:31:07.537Z,37.42
2023-05-19T03:33:41.084Z,46.35
2023-05-19T03:36:11.558Z,36.65
2023-05-19T03:38:43.025Z,43.35
2023-05-19T03:41:13.217Z,45.28
2023-05-19T03:43:43.060Z,41.08
2023-05-19T03:46:13.058Z,39.42
2023-05-19T03:49:02.456Z,39.78
2023-05-19T03:51:52.554Z,40.45
2023-05-19T03:54:36.601Z,38.70
2023-05-19T03:57:07.222Z,36.60
2023-05-19T03:59:38.780Z,40.28
2023-05-19T04:02:09.316Z,40.10
2023-05-19T04:04:39.566Z,41.65
2023-05-19T04:07:09.608Z,39.67
2023-05-19T04:09:39.583Z,40.53
2023-05-19T04:12:10.119Z,44.40
2023-05-19T04:14:40.032Z,39.30
2023-05-19T04:17:09.990Z,42.10
2023-05-19T04:19:40.186Z,36.17
2023-05-19T04:22:09.990Z,43.72
2023-05-19T04:24:40.076Z,34.55
2023-05-19T04:27:13.461Z,40.42
2023-05-19T04:29:43.649Z,35.67
2023-05-19T04:32:13.518Z,41.65
2023-05-19T04:34:46.695Z,41.38
2023-05-19T04:37:23.328Z,37.50
2023-05-19T04:39:53.752Z,39.15
2023-05-19T04:42:27.651Z,39.45
2023-05-19T04:44:58.092Z,35.35
2023-05-19T04:47:31.500Z,34.05
2023-05-19T04:50:02.374Z,37.38
2023-05-19T04:52:32.816Z,33.95
2023-05-19T04:55:04.446Z,38.70
2023-05-19T04:57:34.724Z,36.03
2023-05-19T05:00:06.630Z,38.15
2023-05-19T05:02:44.380Z,39.17
2023-05-19T05:05:16.028Z,38.88
2023-05-19T05:07:46.061Z,43.25
2023-05-19T05:10:16.021Z,38.17
2023-05-19T05:12:46.321Z,37.40
2023-05-19T05:15:16.608Z,40.47
2023-05-19T05:17:49.366Z,47.45
2023-05-19T05:20:21.107Z,38.97
2023-05-19T05:22:51.512Z,48.35
2023-05-19T05:25:22.571Z,35.58
2023-05-19T05:27:54.062Z,36.55
2023-05-19T05:30:24.098Z,33.13
2023-05-19T05:32:54.267Z,36.38
2023-05-19T05:35:35.093Z,38.03
2023-05-19T05:38:06.883Z,40.25
2023-05-19T05:40:38.686Z,34.53
2023-05-19T05:43:10.718Z,32.25
2023-05-19T05:45:47.871Z,33.50
2023-05-19T05:48:18.619Z,35.42
2023-05-19T05:50:50.469Z,36.42
2023-05-19T05:53:26.602Z,37.67
2023-05-19T05:55:58.180Z,37.13
2023-05-19T05:58:37.376Z,36.20
2023-05-19T06:01:11.912Z,33.92
2023-05-19T06:03:45.737Z,35.88
2023-05-19T06:06:21.095Z,41.85
2023-05-19T06:08:51.236Z,32.50
2023-05-19T06:11:21.285Z,31.42
2023-05-19T06:13:53.552Z,37.17
2023-05-19T06:16:43.390Z,32.75
2023-05-19T06:19:14.019Z,33.50
2023-05-19T06:21:45.439Z,29.05
2023-05-19T06:24:15.944Z,34.67
2023-05-19T06:26:46.038Z,26.92
2023-05-19T06:29:16.231Z,28.40
2023-05-19T06:31:46.590Z,31.20
2023-05-19T06:34:19.292Z,28.63
2023-05-19T06:36:50.346Z,34.78
2023-05-19T06:39:22.181Z,32.22
2023-05-19T06:41:53.433Z,31.20
2023-05-19T06:44:42.944Z,28.40
2023-05-19T06:47:14.877Z,27.70
2023-05-19T06:49:45.302Z,27.67
2023-05-19T06:52:19.161Z,33.10
2023-05-19T06:54:50.409Z,28.83
2023-05-19T06:57:20.754Z,31.13
2023-05-19T06:59:50.790Z,26.73
2023-05-19T07:02:21.492Z,30.05
2023-05-19T07:04:53.132Z,32.60
2023-05-19T07:07:24.480Z,28.88
2023-05-19T07:09:54.523Z,34.85
2023-05-19T07:12:24.480Z,35.58
2023-05-19T07:14:55.488Z,28.83
2023-05-19T07:17:26.814Z,28.52
2023-05-19T07:19:57.178Z,30.77
2023-05-19T07:22:32.535Z,30.33
2023-05-19T07:25:02.958Z,26.10
2023-05-19T07:27:33.117Z,27.63
2023-05-19T07:30:03.319Z,26.45
2023-05-19T07:32:33.043Z,24.15
2023-05-19T07:35:02.996Z,29.58
2023-05-19T07:37:32.865Z,26.52
2023-05-19T07:40:03.045Z,29.52
2023-05-19T07:42:32.882Z,28.45
2023-05-19T07:45:04.681Z,30.60
2023-05-19T07:47:35.001Z,30.48
2023-05-19T07:50:05.220Z,33.75
2023-05-19T07:52:35.209Z,28.40
2023-05-19T07:55:05.063Z,28.27
2023-05-19T07:57:35.203Z,25.27
2023-05-19T08:00:09.136Z,27.27
2023-05-19T08:02:41.446Z,29.80
2023-05-19T08:05:13.082Z,29.65
2023-05-19T08:07:43.174Z,28.45
2023-05-19T08:10:12.990Z,28.52
2023-05-19T08:12:43.049Z,27.02
2023-05-19T08:15:13.342Z,24.35
2023-05-19T08:17:43.337Z,29.90
2023-05-19T08:20:16.456Z,29.25
2023-05-19T08:22:46.449Z,28.73
2023-05-19T08:25:16.444Z,30.67
2023-05-19T08:27:46.193Z,26.17
2023-05-19T08:30:16.100Z,27.92
2023-05-19T08:32:46.329Z,30.45
2023-05-19T08:35:16.333Z,27.35
2023-05-19T08:37:46.342Z,26.48
2023-05-19T08:40:20.138Z,35.15
2023-05-19T08:42:50.335Z,28.30
2023-05-19T08:45:27.763Z,33.08
2023-05-19T08:47:58.861Z,29.15
2023-05-19T08:50:41.220Z,33.55
2023-05-19T08:53:34.530Z,28.00
2023-05-19T08:56:13.242Z,30.40
2023-05-19T08:58:45.500Z,37.03
2023-05-19T09:01:18.378Z,32.90
2023-05-19T09:03:51.116Z,39.80
2023-05-19T09:06:21.171Z,27.38
2023-05-19T09:08:51.049Z,31.13
2023-05-19T09:11:21.137Z,32.88
2023-05-19T09:13:51.288Z,27.88
2023-05-19T09:16:21.531Z,31.27
2023-05-19T09:18:59.187Z,38.85
2023-05-19T09:21:35.504Z,42.65
2023-05-19T09:24:09.976Z,45.05
2023-05-19T09:26:44.559Z,26.70
2023-05-19T09:29:21.117Z,27.08
2023-05-19T09:32:07.726Z,30.17
2023-05-19T09:34:43.174Z,27.42
2023-05-19T09:37:15.596Z,31.45
2023-05-19T09:39:50.781Z,26.17
2023-05-19T09:42:31.310Z,31.55
2023-05-19T09:45:08.373Z,39.78
2023-05-19T09:47:43.635Z,36.72
2023-05-19T09:50:15.762Z,31.45
2023-05-19T09:52:46.706Z,33.35
2023-05-19T09:55:17.177Z,31.48
2023-05-19T09:57:47.763Z,32.78
2023-05-19T10:00:19.588Z,32.90
2023-05-19T10:02:51.848Z,33.03
2023-05-19T10:05:23.131Z,33.55
2023-05-19T10:07:55.927Z,34.33
2023-05-19T10:10:26.268Z,36.88
2023-05-19T10:12:57.029Z,39.85
2023-05-19T10:15:28.434Z,33.33
2023-05-19T10:17:59.053Z,33.38
2023-05-19T10:20:30.129Z,41.20
2023-05-19T10:23:00.210Z,41.00
2023-05-19T10:25:30.391Z,33.33
2023-05-19T10:28:13.368Z,37.33
2023-05-19T10:30:52.770Z,33.05
2023-05-19T10:33:24.656Z,33.53
2023-05-19T10:36:35.645Z,34.55
2023-05-19T10:39:15.313Z,42.03
2023-05-19T10:42:05.459Z,40.38
2023-05-19T10:44:55.987Z,39.08
2023-05-19T10:47:31.199Z,35.63
2023-05-19T10:50:03.065Z,38.05
2023-05-19T10:52:34.508Z,42.92
2023-05-19T10:55:06.301Z,44.05
2023-05-19T10:57:37.123Z,47.20
2023-05-19T11:00:30.741Z,47.67
2023-05-19T11:03:25.099Z,50.63
2023-05-19T11:05:55.330Z,41.08
2023-05-19T11:08:37.955Z,44.72
2023-05-19T11:11:18.591Z,46.72
2023-05-19T11:13:58.422Z,46.22
2023-05-19T11:16:33.810Z,42.65
2023-05-19T11:19:04.038Z,48.95
2023-05-19T11:21:56.340Z,47.22
2023-05-19T11:24:47.757Z,42.42
2023-05-19T11:27:35.426Z,49.85
2023-05-19T11:30:20.309Z,55.28
2023-05-19T11:32:50.665Z,52.35
2023-05-19T11:35:22.931Z,58.42
2023-05-19T11:37:55.780Z,58.88
2023-05-19T11:40:25.892Z,52.85
2023-05-19T11:42:55.855Z,51.70
2023-05-19T11:45:31.360Z,54.60
2023-05-19T11:48:04.441Z,58.17
2023-05-19T11:50:35.408Z,49.83
2023-05-19T11:53:05.662Z,52.75
2023-05-19T11:55:36.563Z,67.75
2023-05-19T11:58:06.925Z,74.55
2023-05-19T12:00:45.091Z,75.82
2023-05-19T12:03:15.728Z,62.15
2023-05-19T12:05:48.004Z,63.70
2023-05-19T12:08:23.157Z,72.40
2023-05-19T12:10:55.711Z,75.00
2023-05-19T12:13:25.983Z,65.32
2023-05-19T12:15:59.534Z,70.15
2023-05-19T12:18:33.425Z,65.90
2023-05-19T12:21:03.691Z,68.22
2023-05-19T12:23:34.279Z,73.00
2023-05-19T12:26:04.699Z,68.32
2023-05-19T12:28:34.763Z,68.82
2023-05-19T12:31:05.070Z,71.65
2023-05-19T12:33:36.356Z,64.32
2023-05-19T12:36:07.822Z,67.50
2023-05-19T12:38:41.124Z,67.60
2023-05-19T12:41:15.336Z,70.95
2023-05-19T12:43:45.846Z,91.80
2023-05-19T12:46:18.131Z,68.40
2023-05-19T12:48:49.731Z,69.68
2023-05-19T12:51:21.102Z,67.43
2023-05-19T12:53:53.366Z,67.85
2023-05-19T12:56:23.715Z,65.63
2023-05-19T12:58:57.202Z,68.47
2023-05-19T13:01:27.558Z,64.18
2023-05-19T13:03:59.688Z,65.88
2023-05-19T13:06:30.021Z,69.57
2023-05-19T13:09:00.051Z,73.75
2023-05-19T13:11:30.723Z,70.82
2023-05-19T13:14:00.664Z,68.00
2023-05-19T13:16:30.966Z,71.32
2023-05-19T13:19:01.497Z,64.07
2023-05-19T13:21:31.612Z,70.45
2023-05-19T13:24:01.843Z,63.13
2023-05-19T13:26:32.035Z,62.00
2023-05-19T13:29:02.810Z,60.83
2023-05-19T13:31:32.943Z,59.40
2023-05-19T13:34:03.429Z,65.78
2023-05-19T13:36:34.801Z,66.18
2023-05-19T13:39:05.061Z,67.22
2023-05-19T13:41:35.260Z,66.07
2023-05-19T13:44:05.451Z,66.30
2023-05-19T13:46:44.845Z,59.50
2023-05-19T13:49:16.007Z,68.43
2023-05-19T13:51:46.055Z,63.45
2023-05-19T13:54:16.126Z,58.25
2023-05-19T13:56:48.623Z,60.70
2023-05-19T13:59:24.874Z,55.72
2023-05-19T14:01:55.155Z,58.72
2023-05-19T14:04:28.309Z,54.17
2023-05-19T14:06:58.720Z,51.35
2023-05-19T14:09:29.886Z,45.95
2023-05-19T14:12:00.550Z,56.45
2023-05-19T14:14:30.487Z,46.40
2023-05-19T14:17:00.841Z,48.65
2023-05-19T14:19:31.679Z,50.30
2023-05-19T14:22:01.841Z,52.13
2023-05-19T14:24:32.096Z,48.70
2023-05-19T14:27:02.217Z,41.97
2023-05-19T14:29:32.752Z,46.40
2023-05-19T14:32:04.289Z,45.95
2023-05-19T14:34:34.512Z,44.47
2023-05-19T14:37:04.393Z,45.30
2023-05-19T14:39:34.388Z,45.38
2023-05-19T14:42:04.149Z,50.50
2023-05-19T14:44:34.718Z,45.72
2023-05-19T14:47:05.737Z,46.35
2023-05-19T14:49:35.970Z,41.97
2023-05-19T14:52:06.140Z,47.22
2023-05-19T14:54:36.283Z,43.13
2023-05-19T14:57:06.188Z,44.80
2023-05-19T14:59:39.659Z,41.78
2023-05-19T15:02:09.715Z,45.17
2023-05-19T15:04:39.550Z,47.00
2023-05-19T15:07:10.724Z,46.33
2023-05-19T15:09:41.202Z,52.40
2023-05-19T15:12:11.058Z,44.70
2023-05-19T15:14:41.161Z,48.67
2023-05-19T15:17:11.134Z,132.77
2023-05-19T15:19:43.462Z,43.38
2023-05-19T15:22:13.673Z,41.38
2023-05-19T15:24:43.414Z,36.90
2023-05-19T15:27:13.523Z,40.50
2023-05-19T15:29:43.411Z,40.60
2023-05-19T15:32:13.602Z,43.80
2023-05-19T15:34:44.722Z,44.50
2023-05-19T15:37:14.852Z,42.58
2023-05-19T15:39:44.633Z,44.45
2023-05-19T15:42:14.586Z,46.35
2023-05-19T15:44:47.306Z,43.55
2023-05-19T15:47:18.164Z,49.72
2023-05-19T15:49:48.132Z,45.97
2023-05-19T15:52:18.178Z,42.25
2023-05-19T15:54:50.191Z,45.78
2023-05-19T15:57:23.000Z,44.78
2023-05-19T15:59:53.058Z,45.22
2023-05-19T16:02:26.716Z,42.38
2023-05-19T16:04:59.756Z,46.20
2023-05-19T16:07:29.856Z,48.05
2023-05-19T16:09:59.927Z,47.33
2023-05-19T16:12:31.586Z,45.42
2023-05-19T16:15:01.573Z,42.38
2023-05-19T16:17:31.469Z,44.97
2023-05-19T16:20:01.456Z,44.55
2023-05-19T16:22:32.115Z,45.85
2023-05-19T16:25:02.443Z,44.80
2023-05-19T16:27:32.184Z,46.13
2023-05-19T16:30:02.702Z,51.42
2023-05-19T16:32:32.456Z,53.58
2023-05-19T16:35:02.645Z,40.45
2023-05-19T16:37:32.529Z,50.42
2023-05-19T16:40:02.638Z,48.42
2023-05-19T16:42:33.526Z,45.05
2023-05-19T16:45:04.023Z,43.17
2023-05-19T16:47:34.765Z,45.15
2023-05-19T16:50:05.047Z,54.70
2023-05-19T16:52:35.361Z,46.30
2023-05-19T16:55:05.705Z,47.08
2023-05-19T16:57:35.803Z,46.72
2023-05-19T17:00:06.064Z,40.78
2023-05-19T17:02:36.400Z,48.70
2023-05-19T17:05:06.645Z,46.40
2023-05-19T17:07:36.829Z,50.30
2023-05-19T17:10:07.130Z,44.63
2023-05-19T17:12:37.948Z,49.70
2023-05-19T17:15:08.440Z,45.10
2023-05-19T17:17:38.750Z,42.88
2023-05-19T17:20:09.415Z,51.42
2023-05-19T17:22:39.652Z,45.05
2023-05-19T17:25:10.270Z,49.88
2023-05-19T17:27:40.728Z,49.65
2023-05-19T17:30:11.147Z,49.90
2023-05-19T17:32:41.176Z,43.25
2023-05-19T17:35:11.312Z,42.30
2023-05-19T17:37:41.990Z,44.67
2023-05-19T17:40:12.735Z,41.15
2023-05-19T17:42:42.651Z,49.70
2023-05-19T17:45:14.001Z,41.70
2023-05-19T17:47:49.515Z,46.85
2023-05-19T17:50:19.768Z,46.15
2023-05-19T17:52:50.353Z,45.78
2023-05-19T17:55:20.975Z,48.88
2023-05-19T17:57:51.412Z,49.42
2023-05-19T18:00:22.099Z,43.83
2023-05-19T18:02:52.823Z,50.65
2023-05-19T18:05:26.231Z,52.55
2023-05-19T18:07:59.965Z,47.72
2023-05-19T18:10:30.238Z,43.13
2023-05-19T18:13:00.130Z,46.28
2023-05-19T18:15:30.288Z,49.10
2023-05-19T18:18:00.252Z,45.88
2023-05-19T18:20:32.550Z,47.78
2023-05-19T18:23:03.637Z,44.13
2023-05-19T18:25:33.476Z,48.42
2023-05-19T18:28:03.420Z,52.22
2023-05-19T18:30:33.431Z,49.15
2023-05-19T18:33:05.047Z,53.08
2023-05-19T18:35:36.489Z,50.58
2023-05-19T18:38:06.681Z,50.30
2023-05-19T18:40:36.591Z,53.90
2023-05-19T18:43:06.854Z,44.88
2023-05-19T18:45:38.207Z,47.53
2023-05-19T18:48:09.612Z,49.65
2023-05-19T18:50:39.669Z,54.63
2023-05-19T18:53:09.462Z,50.35
2023-05-19T18:55:39.665Z,52.47
2023-05-19T18:58:09.426Z,45.10
2023-05-19T19:00:39.564Z,47.10
2023-05-19T19:03:11.840Z,46.15
2023-05-19T19:05:42.315Z,45.03
2023-05-19T19:08:12.414Z,45.95
2023-05-19T19:10:42.388Z,57.08
2023-05-19T19:13:12.197Z,49.80
2023-05-19T19:15:42.429Z,54.78
2023-05-19T19:18:12.911Z,49.42
2023-05-19T19:20:43.108Z,48.38
2023-05-19T19:23:12.888Z,48.45
2023-05-19T19:25:43.054Z,50.13
2023-05-19T19:28:13.289Z,54.95
2023-05-19T19:30:43.502Z,50.35
2023-05-19T19:33:13.387Z,45.33
2023-05-19T19:35:43.478Z,47.28
2023-05-19T19:38:13.325Z,45.60
2023-05-19T19:40:43.521Z,52.05
2023-05-19T19:43:13.560Z,46.42
2023-05-19T19:45:43.739Z,47.08
2023-05-19T19:48:16.957Z,43.70
2023-05-19T19:50:46.992Z,47.08
2023-05-19T19:53:17.433Z,50.83
2023-05-19T19:55:47.918Z,53.97
2023-05-19T19:58:17.699Z,46.70
2023-05-19T20:00:47.757Z,58.28
2023-05-19T20:03:17.759Z,53.15
2023-05-19T20:05:48.259Z,53.90
2023-05-19T20:08:18.181Z,54.10
2023-05-19T20:10:52.088Z,58.70
2023-05-19T20:13:22.339Z,55.58
2023-05-19T20:15:52.625Z,59.35
2023-05-19T20:18:23.418Z,52.28
2023-05-19T20:20:53.456Z,47.60
2023-05-19T20:23:23.350Z,55.60
2023-05-19T20:26:09.927Z,47.55
2023-05-19T20:28:41.716Z,54.90
2023-05-19T20:31:11.889Z,51.38
2023-05-19T20:33:42.085Z,52.03
2023-05-19T20:36:12.640Z,55.70
2023-05-19T20:38:42.648Z,52.88
2023-05-19T20:41:12.569Z,51.00
2023-05-19T20:43:42.926Z,48.00
2023-05-19T20:46:13.469Z,47.58
2023-05-19T20:48:43.750Z,51.50
2023-05-19T20:51:13.903Z,53.78
2023-05-19T20:53:43.930Z,53.60
2023-05-19T20:56:14.615Z,49.22
2023-05-19T20:58:44.511Z,56.05
2023-05-19T21:01:14.761Z,50.15
2023-05-19T21:03:44.550Z,54.33
2023-05-19T21:06:14.742Z,52.20
2023-05-19T21:08:44.628Z,50.03
2023-05-19T21:11:14.948Z,51.50
2023-05-19T21:13:44.833Z,55.50
2023-05-19T21:16:14.862Z,53.92
2023-05-19T21:18:44.688Z,54.75
2023-05-19T21:21:14.990Z,56.60
2023-05-19T21:23:44.827Z,58.40
2023-05-19T21:26:14.868Z,57.08
2023-05-19T21:28:44.771Z,54.63
2023-05-19T21:31:15.438Z,54.53
2023-05-19T21:33:45.470Z,55.08
2023-05-19T21:36:15.516Z,58.28
2023-05-19T21:38:45.497Z,56.85
2023-05-19T21:41:16.027Z,52.65
2023-05-19T21:43:47.223Z,54.03
2023-05-19T21:46:17.788Z,51.20
2023-05-19T21:48:48.268Z,54.67
2023-05-19T21:51:18.430Z,54.40
2023-05-19T21:53:48.299Z,57.70
2023-05-19T21:56:18.615Z,55.17
2023-05-19T21:58:48.558Z,58.10
2023-05-19T22:01:18.984Z,60.85
2023-05-19T22:03:49.400Z,66.13
2023-05-19T22:06:19.345Z,61.67
2023-05-19T22:08:49.434Z,58.28
2023-05-19T22:11:19.534Z,54.47
2023-05-19T22:13:49.848Z,67.00
2023-05-19T22:16:19.799Z,55.10
2023-05-19T22:18:49.872Z,59.65
2023-05-19T22:21:19.875Z,62.03
2023-05-19T22:23:50.111Z,67.22
2023-05-19T22:26:20.041Z,63.95
2023-05-19T22:28:51.913Z,71.03
2023-05-19T22:31:22.286Z,60.13
2023-05-19T22:33:53.076Z,63.83
2023-05-19T22:36:23.294Z,71.22
2023-05-19T22:38:53.103Z,68.57
2023-05-19T22:41:23.226Z,67.65
2023-05-19T22:43:53.098Z,64.75
2023-05-19T22:46:23.524Z,58.88
2023-05-19T22:48:53.884Z,59.63
2023-05-19T22:51:24.247Z,57.42
2023-05-19T22:53:54.027Z,64.40
2023-05-19T22:56:24.131Z,64.93
2023-05-19T22:58:53.911Z,58.03
2023-05-19T23:01:24.256Z,61.15
2023-05-19T23:03:54.124Z,64.10
2023-05-19T23:06:24.445Z,60.15
2023-05-19T23:09:04.988Z,57.47
2023-05-19T23:11:36.291Z,58.92
2023-05-19T23:14:06.532Z,62.53
2023-05-19T23:16:39.106Z,56.13
2023-05-19T23:19:09.141Z,53.97
2023-05-19T23:21:39.008Z,60.50
2023-05-19T23:24:11.351Z,59.95
2023-05-19T23:26:41.344Z,53.15
2023-05-19T23:29:14.581Z,64.75
2023-05-19T23:31:45.810Z,60.08
2023-05-19T23:34:15.867Z,60.95
2023-05-19T23:36:45.763Z,61.80
2023-05-19T23:39:15.863Z,60.85
2023-05-19T23:41:45.632Z,57.95
2023-05-19T23:44:15.647Z,57.53
2023-05-19T23:46:45.707Z,60.58
2023-05-19T23:49:16.729Z,52.78
2023-05-19T23:51:46.604Z,54.50
2023-05-19T23:54:16.623Z,53.63
2023-05-19T23:56:46.492Z,57.63
2023-05-19T23:59:16.671Z,54.58
